Aviation Digital Data Service (ADDS)

Output produced by METARs form (1238 UTC 08 May 2021)
found at http://aviationweather.gov/metar/data/
 
KMSY 081153Z 12004KT 10SM FEW250 20/14 A3009 RMK AO2 SLP191 T02000144 10228 20189 53003
KMSY 081120Z 0812/0918 VRB04KT P6SM FEW250 
     FM091300 18008KT P6SM FEW250 
     FM091600 18011G20KT P6SM SKC